createdAt,value
2019-02-11T00:00:08.268Z,2.57
2019-02-11T00:02:36.045Z,2.40
2019-02-11T00:05:03.812Z,2.60
2019-02-11T00:07:31.842Z,2.40
2019-02-11T00:10:00.304Z,2.60
2019-02-11T00:12:28.264Z,2.97
2019-02-11T00:14:56.247Z,2.67
2019-02-11T00:17:24.797Z,2.43
2019-02-11T00:19:52.869Z,2.57
2019-02-11T00:22:20.858Z,2.77
2019-02-11T00:24:49.216Z,2.97
2019-02-11T00:27:17.152Z,2.90
2019-02-11T00:29:45.196Z,3.00
2019-02-11T00:32:12.857Z,2.80
2019-02-11T00:34:41.098Z,2.63
2019-02-11T00:37:09.424Z,2.50
2019-02-11T00:39:37.645Z,2.70
2019-02-11T00:42:05.589Z,2.30
2019-02-11T00:44:34.196Z,2.53
2019-02-11T00:47:02.501Z,2.40
2019-02-11T00:49:31.070Z,2.97
2019-02-11T00:51:59.384Z,2.60
2019-02-11T00:54:27.613Z,2.90
2019-02-11T00:56:55.776Z,2.40
2019-02-11T00:59:23.758Z,2.97
2019-02-11T01:01:51.793Z,2.37
2019-02-11T01:04:20.000Z,2.30
2019-02-11T01:06:47.633Z,2.17
2019-02-11T01:09:15.545Z,1.93
2019-02-11T01:11:43.814Z,1.70
2019-02-11T01:14:12.089Z,1.50
2019-02-11T01:16:40.561Z,2.20
2019-02-11T01:19:08.841Z,1.10
2019-02-11T01:21:37.129Z,1.57
2019-02-11T01:24:04.824Z,1.10
2019-02-11T01:26:32.776Z,1.10
2019-02-11T01:29:00.664Z,1.20
2019-02-11T01:34:08.846Z,0.87
2019-02-11T01:36:36.872Z,0.70
2019-02-11T01:39:05.693Z,0.80
2019-02-11T01:41:33.880Z,0.80
2019-02-11T01:44:01.873Z,1.00
2019-02-11T01:46:30.121Z,0.80
2019-02-11T01:48:57.769Z,0.80
2019-02-11T01:51:25.758Z,0.80
2019-02-11T01:53:53.919Z,0.67
2019-02-11T01:56:21.957Z,0.70
2019-02-11T01:58:49.941Z,0.60
2019-02-11T02:01:17.936Z,0.60
2019-02-11T02:03:45.864Z,0.90
2019-02-11T02:06:14.190Z,0.80
2019-02-11T02:08:42.445Z,0.60
2019-02-11T02:11:10.875Z,0.70
2019-02-11T02:13:44.595Z,0.70
2019-02-11T02:16:08.167Z,1.17
2019-02-11T02:18:35.833Z,0.60
2019-02-11T02:21:04.116Z,0.70
2019-02-11T02:23:31.753Z,0.83
2019-02-11T02:26:00.394Z,0.93
2019-02-11T02:28:28.405Z,0.83
2019-02-11T02:30:56.418Z,0.53
2019-02-11T02:33:24.448Z,0.60
2019-02-11T02:35:52.481Z,0.70
2019-02-11T02:38:20.413Z,1.00
2019-02-11T02:40:48.592Z,0.70
2019-02-11T02:43:16.897Z,1.00
2019-02-11T02:45:45.185Z,1.00
2019-02-11T02:48:13.445Z,1.50
2019-02-11T02:50:41.637Z,1.20
2019-02-11T02:53:09.284Z,1.70
2019-02-11T02:55:37.249Z,1.70
2019-02-11T02:58:04.880Z,2.00
2019-02-11T03:00:32.600Z,2.13
2019-02-11T03:03:00.600Z,2.70
2019-02-11T03:05:28.820Z,2.13
2019-02-11T03:07:56.841Z,2.90
2019-02-11T03:10:25.141Z,2.70
2019-02-11T03:12:53.076Z,2.23
2019-02-11T03:15:21.339Z,2.40
2019-02-11T03:17:49.284Z,2.33
2019-02-11T03:20:17.516Z,2.30
2019-02-11T03:22:45.148Z,2.10
2019-02-11T03:25:13.198Z,2.40
2019-02-11T03:27:41.418Z,2.23
2019-02-11T03:30:09.436Z,2.03
2019-02-11T03:32:37.715Z,2.23
2019-02-11T03:35:06.001Z,1.97
2019-02-11T03:37:34.028Z,2.10
2019-02-11T03:40:02.232Z,1.83
2019-02-11T03:42:29.875Z,2.00
2019-02-11T03:44:58.290Z,2.40
2019-02-11T03:47:26.230Z,2.00
2019-02-11T03:49:54.139Z,2.13
2019-02-11T03:52:22.058Z,2.20
2019-02-11T03:54:50.348Z,2.10
2019-02-11T03:57:18.260Z,1.90
2019-02-11T03:59:46.534Z,2.93
2019-02-11T04:02:14.521Z,2.73
2019-02-11T04:04:42.528Z,3.00
2019-02-11T04:07:10.408Z,2.80
2019-02-11T04:09:38.580Z,3.33
2019-02-11T04:12:06.940Z,4.23
2019-02-11T04:14:34.936Z,4.90
2019-02-11T04:17:03.036Z,4.60
2019-02-11T04:19:31.238Z,5.20
2019-02-11T04:22:04.251Z,6.30
2019-02-11T04:24:32.162Z,5.73
2019-02-11T04:26:59.804Z,5.10
2019-02-11T04:29:27.770Z,5.37
2019-02-11T04:31:55.506Z,4.60
2019-02-11T04:34:23.448Z,5.03
2019-02-11T04:36:56.915Z,5.03
2019-02-11T04:39:24.909Z,5.37
2019-02-11T04:41:56.058Z,6.50
2019-02-11T04:44:33.647Z,4.50
2019-02-11T04:46:54.085Z,4.80
2019-02-11T04:49:21.783Z,4.63
2019-02-11T04:51:49.785Z,4.60
2019-02-11T04:54:17.948Z,4.23
2019-02-11T04:56:45.919Z,4.77
2019-02-11T04:59:13.896Z,4.67
2019-02-11T05:01:42.154Z,5.30
2019-02-11T05:04:10.233Z,4.83
2019-02-11T05:06:38.290Z,5.50
2019-02-11T05:09:07.361Z,4.60
2019-02-11T05:11:35.272Z,4.87
2019-02-11T05:14:04.009Z,4.70
2019-02-11T05:16:32.285Z,4.70
2019-02-11T05:18:59.967Z,5.10
2019-02-11T05:21:27.913Z,5.13
2019-02-11T05:23:55.867Z,4.30
2019-02-11T05:26:24.468Z,4.87
2019-02-11T05:28:52.435Z,5.20
2019-02-11T05:31:20.632Z,4.87
2019-02-11T05:33:48.308Z,4.57
2019-02-11T05:36:16.462Z,4.77
2019-02-11T05:38:44.391Z,4.37
2019-02-11T05:41:12.689Z,4.73
2019-02-11T05:43:40.336Z,5.37
2019-02-11T05:46:08.550Z,4.40
2019-02-11T05:48:36.185Z,4.77
2019-02-11T05:51:04.147Z,5.23
2019-02-11T05:53:31.793Z,5.53
2019-02-11T05:55:59.691Z,4.90
2019-02-11T05:58:27.645Z,4.90
2019-02-11T06:00:55.941Z,4.47
2019-02-11T06:03:23.693Z,4.43
2019-02-11T06:05:51.932Z,4.50
2019-02-11T06:08:19.931Z,4.47
2019-02-11T06:10:47.850Z,4.10
2019-02-11T06:13:15.856Z,4.03
2019-02-11T06:15:43.495Z,4.70
2019-02-11T06:18:11.510Z,4.43
2019-02-11T06:20:39.545Z,4.00
2019-02-11T06:23:07.762Z,4.50
2019-02-11T06:25:36.208Z,3.30
2019-02-11T06:28:04.417Z,3.67
2019-02-11T06:30:33.004Z,3.40
2019-02-11T06:33:01.013Z,3.50
2019-02-11T06:35:29.012Z,4.00
2019-02-11T06:37:56.671Z,3.57
2019-02-11T06:40:24.615Z,3.60
2019-02-11T06:42:52.802Z,4.13
2019-02-11T06:45:20.713Z,3.70
2019-02-11T06:47:48.340Z,3.90
2019-02-11T06:50:16.316Z,3.70
2019-02-11T06:52:44.828Z,3.60
2019-02-11T06:55:13.520Z,4.00
2019-02-11T06:57:41.149Z,4.63
2019-02-11T07:00:09.879Z,4.17
2019-02-11T07:02:37.538Z,3.83
2019-02-11T07:05:05.309Z,4.50
2019-02-11T07:07:33.381Z,4.17
2019-02-11T07:10:01.346Z,4.27
2019-02-11T07:12:37.272Z,4.20
2019-02-11T07:15:06.857Z,4.13
2019-02-11T07:17:35.478Z,4.13
2019-02-11T07:20:03.228Z,4.40
2019-02-11T07:22:31.425Z,4.50
2019-02-11T07:24:59.421Z,4.63
2019-02-11T07:27:27.436Z,4.00
2019-02-11T07:29:55.934Z,4.80
2019-02-11T07:32:24.210Z,4.67
2019-02-11T07:34:52.506Z,5.67
2019-02-11T07:37:20.165Z,4.60
2019-02-11T07:39:48.177Z,5.13
2019-02-11T07:42:23.058Z,4.63
2019-02-11T07:44:54.213Z,5.27
2019-02-11T07:47:22.293Z,4.97
2019-02-11T07:49:50.547Z,6.00
2019-02-11T07:52:26.468Z,5.47
2019-02-11T07:54:48.187Z,5.33
2019-02-11T07:57:15.816Z,5.27
2019-02-11T07:59:43.477Z,4.97
2019-02-11T08:02:11.525Z,5.00
2019-02-11T08:04:39.453Z,5.80
2019-02-11T08:07:07.461Z,5.90
2019-02-11T08:09:35.746Z,5.60
2019-02-11T08:12:03.381Z,5.40
2019-02-11T08:14:31.664Z,5.90
2019-02-11T08:16:59.313Z,5.67
2019-02-11T08:19:27.658Z,6.00
2019-02-11T08:21:55.575Z,5.37
2019-02-11T08:24:23.577Z,5.97
2019-02-11T08:26:51.581Z,5.70
2019-02-11T08:29:19.894Z,6.20
2019-02-11T08:31:48.073Z,6.00
2019-02-11T08:34:15.715Z,6.53
2019-02-11T08:36:44.019Z,6.27
2019-02-11T08:39:11.946Z,6.60
2019-02-11T08:41:39.606Z,5.83
2019-02-11T08:44:07.524Z,6.30
2019-02-11T08:46:36.097Z,6.33
2019-02-11T08:49:04.100Z,6.73
2019-02-11T08:51:31.873Z,6.40
2019-02-11T08:53:59.825Z,6.37
2019-02-11T08:56:28.153Z,6.67
2019-02-11T08:58:56.221Z,6.43
2019-02-11T09:01:24.163Z,6.30
2019-02-11T09:03:52.385Z,6.03
2019-02-11T09:06:21.437Z,6.17
2019-02-11T09:08:49.093Z,6.13
2019-02-11T09:11:17.212Z,5.80
2019-02-11T09:13:45.192Z,6.10
2019-02-11T09:16:12.860Z,6.17
2019-02-11T09:18:41.115Z,5.90
2019-02-11T09:21:08.775Z,5.10
2019-02-11T09:23:36.678Z,5.23
2019-02-11T09:26:04.708Z,5.00
2019-02-11T09:28:32.997Z,5.17
2019-02-11T09:31:00.766Z,5.43
2019-02-11T09:33:28.731Z,4.63
2019-02-11T09:35:56.828Z,5.53
2019-02-11T09:38:24.782Z,4.80
2019-02-11T09:40:52.957Z,4.77
2019-02-11T09:43:20.993Z,4.60
2019-02-11T09:45:48.934Z,4.30
2019-02-11T09:48:17.468Z,4.33
2019-02-11T09:50:47.015Z,4.50
2019-02-11T09:53:14.969Z,4.90
2019-02-11T09:55:42.923Z,3.97
2019-02-11T09:58:10.652Z,4.63
2019-02-11T10:00:38.638Z,4.40
2019-02-11T10:03:06.981Z,4.43
2019-02-11T10:05:35.195Z,4.50
2019-02-11T10:08:03.160Z,4.90
2019-02-11T10:10:31.102Z,5.37
2019-02-11T10:12:59.018Z,4.63
2019-02-11T10:15:27.001Z,4.50
2019-02-11T10:17:55.046Z,4.27
2019-02-11T10:20:23.520Z,5.03
2019-02-11T10:22:51.180Z,4.67
2019-02-11T10:25:20.817Z,4.10
2019-02-11T10:27:48.557Z,5.27
2019-02-11T10:30:16.276Z,4.10
2019-02-11T10:32:44.437Z,4.20
2019-02-11T10:35:12.174Z,4.37
2019-02-11T10:37:40.125Z,4.13
2019-02-11T10:40:09.016Z,4.37
2019-02-11T10:42:36.660Z,4.07
2019-02-11T10:45:04.452Z,3.60
2019-02-11T10:47:32.429Z,4.20
2019-02-11T10:50:01.465Z,3.63
2019-02-11T10:52:29.152Z,3.93
2019-02-11T10:54:56.810Z,4.80
2019-02-11T10:57:24.834Z,4.37
2019-02-11T10:59:53.074Z,4.30
2019-02-11T11:02:20.957Z,4.40
2019-02-11T11:04:48.881Z,4.37
2019-02-11T11:07:16.887Z,4.30
2019-02-11T11:09:45.156Z,4.73
2019-02-11T11:12:12.901Z,3.60
2019-02-11T11:14:40.543Z,3.90
2019-02-11T11:17:08.554Z,4.20
2019-02-11T11:19:36.732Z,3.80
2019-02-11T11:22:04.421Z,4.57
2019-02-11T11:24:32.648Z,4.10
2019-02-11T11:27:01.373Z,5.03
2019-02-11T11:29:29.658Z,4.23
2019-02-11T11:31:57.674Z,7.40
2019-02-11T11:34:25.325Z,13.60
2019-02-11T11:36:53.239Z,4.00
2019-02-11T11:39:23.252Z,7.93
2019-02-11T11:41:51.421Z,3.73
2019-02-11T11:44:19.320Z,5.30
2019-02-11T11:46:47.435Z,3.80
2019-02-11T11:49:15.501Z,4.57
2019-02-11T11:51:43.396Z,4.67
2019-02-11T11:54:11.673Z,5.40
2019-02-11T11:56:39.609Z,5.10
2019-02-11T11:59:07.619Z,4.70
2019-02-11T12:01:35.539Z,4.60
2019-02-11T12:04:06.159Z,4.77
2019-02-11T12:06:33.436Z,5.67
2019-02-11T12:09:01.776Z,4.50
2019-02-11T12:11:29.701Z,5.67
2019-02-11T12:13:57.776Z,4.70
2019-02-11T12:16:26.362Z,5.03
2019-02-11T12:18:54.010Z,4.47
2019-02-11T12:21:22.516Z,4.90
2019-02-11T12:23:50.195Z,5.00
2019-02-11T12:26:21.469Z,5.00
2019-02-11T12:28:48.996Z,4.97
2019-02-11T12:31:21.098Z,5.20
2019-02-11T12:33:49.023Z,5.43
2019-02-11T12:36:17.077Z,5.90
2019-02-11T12:38:45.013Z,5.80
2019-02-11T12:41:12.987Z,5.90
2019-02-11T12:43:40.694Z,6.57
2019-02-11T12:46:09.340Z,6.47
2019-02-11T12:48:37.265Z,7.07
2019-02-11T12:51:05.282Z,7.33
2019-02-11T12:53:33.246Z,6.50
2019-02-11T12:56:02.762Z,7.10
2019-02-11T12:58:30.916Z,7.17
2019-02-11T13:00:59.229Z,7.07
2019-02-11T13:03:27.616Z,7.40
2019-02-11T13:05:55.602Z,7.23
2019-02-11T13:08:23.713Z,7.40
2019-02-11T13:10:51.774Z,7.57
2019-02-11T13:13:20.077Z,7.37
2019-02-11T13:16:01.117Z,7.20
2019-02-11T13:18:18.130Z,7.33
2019-02-11T13:20:46.876Z,7.40
2019-02-11T13:23:14.984Z,8.20
2019-02-11T13:25:42.865Z,7.20
2019-02-11T13:28:11.316Z,6.80
2019-02-11T13:30:39.673Z,5.90
2019-02-11T13:33:07.750Z,5.53
2019-02-11T13:35:35.686Z,5.27
2019-02-11T13:38:03.930Z,5.57
2019-02-11T13:40:32.492Z,5.60
2019-02-11T13:43:00.811Z,4.00
2019-02-11T13:45:29.103Z,3.60
2019-02-11T13:47:58.753Z,3.00
2019-02-11T13:50:27.030Z,3.00
2019-02-11T13:52:55.092Z,3.27
2019-02-11T13:55:22.997Z,2.90
2019-02-11T13:57:50.991Z,2.70
2019-02-11T14:00:22.068Z,2.80
2019-02-11T14:02:50.810Z,3.17
2019-02-11T14:05:18.838Z,2.50
2019-02-11T14:07:47.197Z,2.07
2019-02-11T14:10:15.686Z,2.13
2019-02-11T14:12:43.356Z,1.70
2019-02-11T14:15:11.273Z,1.50
2019-02-11T14:17:39.307Z,1.60
2019-02-11T14:20:09.277Z,1.40
2019-02-11T14:22:37.486Z,1.67
2019-02-11T14:25:05.662Z,1.97
2019-02-11T14:27:33.582Z,1.90
2019-02-11T14:30:01.542Z,1.40
2019-02-11T14:32:31.423Z,1.60
2019-02-11T14:34:59.517Z,2.00
2019-02-11T14:37:27.869Z,2.30
2019-02-11T14:39:55.885Z,1.80
2019-02-11T14:42:23.613Z,1.93
2019-02-11T14:44:51.953Z,2.00
2019-02-11T14:47:19.990Z,2.30
2019-02-11T14:49:48.331Z,2.10
2019-02-11T14:52:16.276Z,3.00
2019-02-11T14:54:44.665Z,2.37
2019-02-11T14:57:12.622Z,2.70
2019-02-11T14:59:40.641Z,2.07
2019-02-11T15:02:08.561Z,4.23
2019-02-11T15:04:36.843Z,4.33
2019-02-11T15:07:05.087Z,3.57
2019-02-11T15:09:33.394Z,2.50
2019-02-11T15:12:01.334Z,2.37
2019-02-11T15:14:29.669Z,2.20
2019-02-11T15:16:57.327Z,2.00
2019-02-11T15:19:24.980Z,2.00
2019-02-11T15:21:53.233Z,2.30
2019-02-11T15:24:21.405Z,2.10
2019-02-11T15:26:49.630Z,2.63
2019-02-11T15:29:17.583Z,3.83
2019-02-11T15:31:45.520Z,4.93
2019-02-11T15:34:13.796Z,9.30
2019-02-11T15:36:42.397Z,6.63
2019-02-11T15:39:10.656Z,7.00
2019-02-11T15:41:38.372Z,19.13
2019-02-11T15:44:05.991Z,16.50
2019-02-11T15:46:34.001Z,16.50
2019-02-11T15:49:02.646Z,13.93
2019-02-11T15:51:30.657Z,6.70
2019-02-11T15:53:59.094Z,3.60
2019-02-11T15:56:27.361Z,6.03
2019-02-11T15:58:55.096Z,4.73
2019-02-11T16:01:23.020Z,5.63
2019-02-11T16:03:50.958Z,7.07
2019-02-11T16:06:19.250Z,6.20
2019-02-11T16:08:47.593Z,12.17
2019-02-11T16:11:15.253Z,18.40
2019-02-11T16:13:43.506Z,15.10
2019-02-11T16:16:11.401Z,11.83
2019-02-11T16:18:39.048Z,8.60
2019-02-11T16:21:07.032Z,8.00
2019-02-11T16:23:35.026Z,5.90
2019-02-11T16:26:02.664Z,4.40
2019-02-11T16:28:30.925Z,3.80
2019-02-11T16:30:58.987Z,2.80
2019-02-11T16:33:26.657Z,2.33
2019-02-11T16:35:54.945Z,2.70
2019-02-11T16:38:22.881Z,2.30
2019-02-11T16:40:50.527Z,2.30
2019-02-11T16:43:18.784Z,2.30
2019-02-11T16:45:47.117Z,1.70
2019-02-11T16:48:15.033Z,2.00
2019-02-11T16:50:43.020Z,1.50
2019-02-11T16:53:10.964Z,2.10
2019-02-11T16:55:39.232Z,2.50
2019-02-11T16:58:07.816Z,2.30
2019-02-11T17:00:35.829Z,2.30
2019-02-11T17:03:04.171Z,2.30
2019-02-11T17:05:31.813Z,2.10
2019-02-11T17:07:59.745Z,2.63
2019-02-11T17:10:27.625Z,2.30
2019-02-11T17:12:55.673Z,2.50
2019-02-11T17:15:24.012Z,2.60
2019-02-11T17:17:51.663Z,2.53
2019-02-11T17:20:19.629Z,1.80
2019-02-11T17:22:48.117Z,2.63
2019-02-11T17:25:16.408Z,2.63
2019-02-11T17:27:44.331Z,2.80
2019-02-11T17:30:19.611Z,2.80
2019-02-11T17:32:47.865Z,2.27
2019-02-11T17:35:15.894Z,2.40
2019-02-11T17:37:43.797Z,2.40
2019-02-11T17:40:11.998Z,2.20
2019-02-11T17:42:39.778Z,2.20
2019-02-11T17:45:09.181Z,2.50
2019-02-11T17:47:37.451Z,2.20
2019-02-11T17:50:07.962Z,2.87
2019-02-11T17:52:35.970Z,2.63
2019-02-11T17:55:04.612Z,2.30
2019-02-11T17:57:32.377Z,2.40
2019-02-11T18:00:00.007Z,2.20
2019-02-11T18:02:28.438Z,2.60
2019-02-11T18:04:56.081Z,2.00
2019-02-11T18:07:24.157Z,2.27
2019-02-11T18:09:51.806Z,2.40
2019-02-11T18:12:19.464Z,1.83
2019-02-11T18:14:47.514Z,2.23
2019-02-11T18:17:15.869Z,2.43
2019-02-11T18:19:43.790Z,2.17
2019-02-11T18:22:12.320Z,2.50
2019-02-11T18:24:40.008Z,4.23
2019-02-11T18:27:08.674Z,2.43
2019-02-11T18:29:36.566Z,3.07
2019-02-11T18:32:05.310Z,2.60
2019-02-11T18:34:33.962Z,3.03
2019-02-11T18:37:01.729Z,2.37
2019-02-11T18:39:29.813Z,2.40
2019-02-11T18:41:58.038Z,2.57
2019-02-11T18:44:25.777Z,2.60
2019-02-11T18:46:53.824Z,2.30
2019-02-11T18:49:21.776Z,2.30
2019-02-11T18:51:49.426Z,2.60
2019-02-11T18:54:17.495Z,2.60
2019-02-11T18:56:45.684Z,2.93
2019-02-11T18:59:13.623Z,2.53
2019-02-11T19:01:41.518Z,2.40
2019-02-11T19:04:09.915Z,2.60
2019-02-11T19:06:38.090Z,3.70
2019-02-11T19:09:07.429Z,3.77
2019-02-11T19:11:35.681Z,3.93
2019-02-11T19:14:03.583Z,4.13
2019-02-11T19:16:31.734Z,3.80
2019-02-11T19:18:59.989Z,3.60
2019-02-11T19:21:27.673Z,2.70
2019-02-11T19:23:55.549Z,2.73
2019-02-11T19:26:23.515Z,2.60
2019-02-11T19:28:51.509Z,2.30
2019-02-11T19:31:19.160Z,3.17
2019-02-11T19:33:47.138Z,3.50
2019-02-11T19:36:15.397Z,2.83
2019-02-11T19:38:43.312Z,3.60
2019-02-11T19:41:10.990Z,4.83
2019-02-11T19:43:39.333Z,3.87
2019-02-11T19:46:07.290Z,3.40
2019-02-11T19:48:35.317Z,3.13
2019-02-11T19:51:03.210Z,2.40
2019-02-11T19:53:31.240Z,2.50
2019-02-11T19:55:59.243Z,2.67
2019-02-11T19:58:27.572Z,2.83
2019-02-11T20:00:55.497Z,3.10
2019-02-11T20:03:23.850Z,2.97
2019-02-11T20:05:51.574Z,3.47
2019-02-11T20:08:20.118Z,3.10
2019-02-11T20:10:47.762Z,3.00
2019-02-11T20:13:15.819Z,2.57
2019-02-11T20:15:43.794Z,2.60
2019-02-11T20:18:11.805Z,2.47
2019-02-11T20:20:40.112Z,2.63
2019-02-11T20:23:07.761Z,2.60
2019-02-11T20:25:35.777Z,2.70
2019-02-11T20:28:04.337Z,2.47
2019-02-11T20:30:32.036Z,2.27
2019-02-11T20:32:59.680Z,2.70
2019-02-11T20:35:27.447Z,2.73
2019-02-11T20:37:55.248Z,2.60
2019-02-11T20:40:23.500Z,2.47
2019-02-11T20:42:51.388Z,2.40
2019-02-11T20:45:20.254Z,2.67
2019-02-11T20:47:47.961Z,2.60
2019-02-11T20:50:16.234Z,2.37
2019-02-11T20:52:43.921Z,2.10
2019-02-11T20:55:12.065Z,2.40
2019-02-11T20:57:40.123Z,2.47
2019-02-11T21:00:10.305Z,2.80
2019-02-11T21:02:38.292Z,2.57
2019-02-11T21:05:06.260Z,2.53
2019-02-11T21:07:34.313Z,2.73
2019-02-11T21:10:02.408Z,2.30
2019-02-11T21:12:30.137Z,3.00
2019-02-11T21:14:58.638Z,2.60
2019-02-11T21:17:26.807Z,2.70
2019-02-11T21:19:54.875Z,3.07
2019-02-11T21:22:22.662Z,2.60
2019-02-11T21:24:50.590Z,2.50
2019-02-11T21:27:18.485Z,3.07
2019-02-11T21:29:46.497Z,2.17
2019-02-11T21:32:14.145Z,2.30
2019-02-11T21:34:42.533Z,2.70
2019-02-11T21:37:10.213Z,2.67
2019-02-11T21:39:38.149Z,3.17
2019-02-11T21:42:06.333Z,3.03
2019-02-11T21:44:34.572Z,2.63
2019-02-11T21:47:03.059Z,3.13
2019-02-11T21:49:31.260Z,3.27
2019-02-11T21:51:59.264Z,2.80
2019-02-11T21:54:27.161Z,2.80
2019-02-11T21:56:55.094Z,3.40
2019-02-11T21:59:23.041Z,3.27
2019-02-11T22:01:51.276Z,2.90
2019-02-11T22:04:18.951Z,3.60
2019-02-11T22:06:46.840Z,3.10
2019-02-11T22:09:15.165Z,3.37
2019-02-11T22:11:43.104Z,3.50
2019-02-11T22:14:10.953Z,3.20
2019-02-11T22:16:38.703Z,2.93
2019-02-11T22:19:06.695Z,3.33
2019-02-11T22:21:34.341Z,2.80
2019-02-11T22:24:02.574Z,3.10
2019-02-11T22:26:30.498Z,3.20
2019-02-11T22:28:58.833Z,3.77
2019-02-11T22:31:26.531Z,3.20
2019-02-11T22:33:54.905Z,3.00
2019-02-11T22:36:23.351Z,3.00
2019-02-11T22:38:51.002Z,3.50
2019-02-11T22:41:19.198Z,3.27
2019-02-11T22:43:47.205Z,3.33
2019-02-11T22:46:15.454Z,3.30
2019-02-11T22:48:43.370Z,3.50
2019-02-11T22:51:12.101Z,3.20
2019-02-11T22:53:40.777Z,3.00
2019-02-11T22:56:09.466Z,3.40
2019-02-11T22:58:38.355Z,3.10
2019-02-11T23:01:06.845Z,3.40
2019-02-11T23:03:35.160Z,3.70
2019-02-11T23:06:03.380Z,3.70
2019-02-11T23:08:31.317Z,4.00
2019-02-11T23:10:58.961Z,3.40
2019-02-11T23:13:26.923Z,3.60
2019-02-11T23:15:55.178Z,3.60
2019-02-11T23:18:23.188Z,4.00
2019-02-11T23:20:52.307Z,3.80
2019-02-11T23:23:20.508Z,3.50
2019-02-11T23:25:48.479Z,3.60
2019-02-11T23:28:16.158Z,3.60
2019-02-11T23:30:44.062Z,3.83
2019-02-11T23:33:12.310Z,3.57
2019-02-11T23:35:40.601Z,3.43
2019-02-11T23:38:08.256Z,3.73
2019-02-11T23:40:36.503Z,3.47
2019-02-11T23:43:04.369Z,4.23
2019-02-11T23:45:33.054Z,3.50
2019-02-11T23:48:00.739Z,3.60
2019-02-11T23:50:28.785Z,3.50
2019-02-11T23:52:57.080Z,3.93
2019-02-11T23:55:24.997Z,3.60
2019-02-11T23:57:53.305Z,4.13
